createdAt,value
2022-08-02T00:01:14.540Z,44.15
2022-08-02T00:03:45.211Z,44.39
2022-08-02T00:06:16.437Z,44.30
2022-08-02T00:08:47.170Z,44.35
2022-08-02T00:11:17.860Z,44.47
2022-08-02T00:13:48.528Z,44.41
2022-08-02T00:16:19.252Z,44.56
2022-08-02T00:18:49.904Z,44.42
2022-08-02T00:21:20.558Z,44.68
2022-08-02T00:24:27.982Z,44.94
2022-08-02T00:26:42.023Z,44.78
2022-08-02T00:29:12.696Z,44.89
2022-08-02T00:31:43.349Z,44.85
2022-08-02T00:34:28.406Z,44.97
2022-08-02T00:37:01.853Z,45.07
2022-08-02T00:39:35.102Z,44.90
2022-08-02T00:42:07.484Z,45.25
2022-08-02T00:44:38.376Z,45.28
2022-08-02T00:47:09.036Z,45.38
2022-08-02T00:49:39.811Z,45.39
2022-08-02T00:52:10.971Z,45.59
2022-08-02T00:54:41.888Z,45.50
2022-08-02T00:57:12.622Z,45.73
2022-08-02T00:59:43.313Z,45.68
2022-08-02T01:02:14.541Z,45.65
2022-08-02T01:04:45.441Z,45.72
2022-08-02T01:07:16.062Z,46.06
2022-08-02T01:09:46.750Z,45.98
2022-08-02T01:12:17.874Z,46.11
2022-08-02T01:14:49.228Z,45.93
2022-08-02T01:17:21.997Z,45.93
2022-08-02T01:19:53.055Z,46.22
2022-08-02T01:22:59.601Z,46.17
2022-08-02T01:25:35.452Z,46.51
2022-08-02T01:28:18.919Z,46.43
2022-08-02T01:30:49.692Z,46.28
2022-08-02T01:33:22.716Z,46.34
2022-08-02T01:35:54.258Z,46.37
2022-08-02T01:38:25.434Z,46.38
2022-08-02T01:40:56.211Z,46.48
2022-08-02T01:43:26.948Z,46.58
2022-08-02T01:45:57.677Z,46.42
2022-08-02T01:48:28.531Z,46.81
2022-08-02T01:50:59.755Z,46.61
2022-08-02T01:53:30.387Z,46.49
2022-08-02T01:56:01.490Z,46.68
2022-08-02T01:58:32.911Z,46.81
2022-08-02T02:01:03.679Z,46.86
2022-08-02T02:03:34.464Z,46.93
2022-08-02T02:06:05.260Z,47.09
2022-08-02T02:08:38.066Z,46.94
2022-08-02T02:12:05.828Z,47.15
2022-08-02T02:14:01.965Z,47.43
2022-08-02T02:16:33.304Z,47.39
2022-08-02T02:19:06.035Z,47.22
2022-08-02T02:21:36.680Z,47.37
2022-08-02T02:24:11.665Z,47.51
2022-08-02T02:26:48.635Z,47.54
2022-08-02T02:29:24.892Z,47.66
2022-08-02T02:31:55.727Z,47.71
2022-08-02T02:34:28.369Z,47.71
2022-08-02T02:37:00.082Z,48.03
2022-08-02T02:39:30.915Z,48.03
2022-08-02T02:42:03.405Z,48.12
2022-08-02T02:44:34.524Z,48.09
2022-08-02T02:47:05.279Z,48.32
2022-08-02T02:49:36.413Z,48.08
2022-08-02T02:52:07.371Z,48.28
2022-08-02T02:54:38.219Z,48.11
2022-08-02T02:57:08.887Z,48.48
2022-08-02T02:59:48.923Z,48.25
2022-08-02T03:02:21.255Z,48.14
2022-08-02T03:04:57.295Z,48.31
2022-08-02T03:07:28.883Z,48.25
2022-08-02T03:09:59.817Z,48.38
2022-08-02T03:12:32.237Z,48.69
2022-08-02T03:15:05.247Z,48.43
2022-08-02T03:17:46.132Z,48.57
2022-08-02T03:20:17.433Z,48.51
2022-08-02T03:22:48.520Z,48.82
2022-08-02T03:25:19.502Z,48.83
2022-08-02T03:27:50.158Z,48.60
2022-08-02T03:30:24.786Z,48.70
2022-08-02T03:32:55.505Z,48.88
2022-08-02T03:35:26.102Z,49.26
2022-08-02T03:37:56.762Z,49.08
2022-08-02T03:40:27.688Z,49.20
2022-08-02T03:42:58.818Z,48.96
2022-08-02T03:45:29.724Z,48.83
2022-08-02T03:48:00.523Z,49.03
2022-08-02T03:50:31.149Z,48.92
2022-08-02T03:53:01.887Z,48.80
2022-08-02T03:55:32.561Z,49.00
2022-08-02T03:58:03.235Z,48.97
2022-08-02T04:00:34.022Z,49.16
2022-08-02T04:03:04.654Z,49.22
2022-08-02T04:05:35.408Z,49.32
2022-08-02T04:08:36.354Z,49.42
2022-08-02T04:11:25.517Z,49.35
2022-08-02T04:13:56.881Z,49.30
2022-08-02T04:16:29.638Z,49.50
2022-08-02T04:19:02.217Z,49.38
2022-08-02T04:21:49.046Z,49.53
2022-08-02T04:24:25.117Z,49.51
2022-08-02T04:27:06.678Z,49.40
2022-08-02T04:29:48.610Z,49.55
2022-08-02T04:32:19.539Z,49.50
2022-08-02T04:35:17.781Z,49.59
2022-08-02T04:38:08.670Z,49.50
2022-08-02T04:40:31.535Z,49.60
2022-08-02T04:43:02.186Z,49.63
2022-08-02T04:45:32.884Z,49.54
2022-08-02T04:48:05.795Z,49.84
2022-08-02T04:50:37.011Z,49.67
2022-08-02T04:53:07.794Z,49.60
2022-08-02T04:55:39.059Z,49.69
2022-08-02T04:58:30.131Z,49.75
2022-08-02T05:01:00.482Z,49.99
2022-08-02T05:03:31.207Z,49.66
2022-08-02T05:06:01.886Z,49.75
2022-08-02T05:08:32.699Z,49.97
2022-08-02T05:11:03.389Z,49.98
2022-08-02T05:13:34.141Z,49.82
2022-08-02T05:16:31.034Z,49.98
2022-08-02T05:19:03.071Z,49.98
2022-08-02T05:21:34.251Z,50.02
2022-08-02T05:24:05.157Z,50.07
2022-08-02T05:26:35.820Z,49.93
2022-08-02T05:29:06.479Z,49.99
2022-08-02T05:31:37.175Z,49.88
2022-08-02T05:34:11.863Z,49.89
2022-08-02T05:36:43.077Z,50.03
2022-08-02T05:39:18.767Z,49.73
2022-08-02T05:41:49.873Z,49.81
2022-08-02T05:44:20.602Z,49.98
2022-08-02T05:46:51.295Z,50.01
2022-08-02T05:49:22.066Z,49.83
2022-08-02T05:51:54.163Z,49.87
2022-08-02T05:54:25.595Z,49.64
2022-08-02T05:56:57.623Z,49.31
2022-08-02T05:59:34.574Z,49.50
2022-08-02T06:02:05.985Z,49.40
2022-08-02T06:04:45.811Z,49.60
2022-08-02T06:07:16.445Z,49.72
2022-08-02T06:09:47.154Z,49.62
2022-08-02T06:12:18.123Z,49.65
2022-08-02T06:14:52.592Z,49.41
2022-08-02T06:17:25.443Z,49.78
2022-08-02T06:19:56.685Z,49.63
2022-08-02T06:22:37.545Z,49.36
2022-08-02T06:25:11.718Z,49.31
2022-08-02T06:28:01.119Z,48.96
2022-08-02T06:30:33.387Z,49.00
2022-08-02T06:33:04.329Z,48.91
2022-08-02T06:35:35.926Z,49.01
2022-08-02T06:38:06.654Z,48.80
2022-08-02T06:40:37.902Z,48.93
2022-08-02T06:43:14.437Z,48.86
2022-08-02T06:45:45.145Z,48.70
2022-08-02T06:48:15.921Z,48.85
2022-08-02T06:50:46.559Z,48.87
2022-08-02T06:53:17.313Z,48.66
2022-08-02T06:55:47.982Z,48.59
2022-08-02T06:58:18.662Z,48.34
2022-08-02T07:00:49.460Z,48.19
2022-08-02T07:03:20.137Z,47.89
2022-08-02T07:05:50.960Z,47.91
2022-08-02T07:08:21.809Z,47.81
2022-08-02T07:10:52.498Z,47.72
2022-08-02T07:13:23.197Z,47.63
2022-08-02T07:15:53.903Z,47.53
2022-08-02T07:18:25.102Z,47.44
2022-08-02T07:20:55.799Z,47.21
2022-08-02T07:23:26.616Z,46.91
2022-08-02T07:26:02.642Z,46.97
2022-08-02T07:28:34.286Z,46.87
2022-08-02T07:31:05.119Z,46.58
2022-08-02T07:33:37.710Z,46.41
2022-08-02T07:36:17.030Z,46.18
2022-08-02T07:38:53.631Z,45.89
2022-08-02T07:41:24.287Z,45.60
2022-08-02T07:43:54.876Z,45.35
2022-08-02T07:46:25.844Z,45.22
2022-08-02T07:48:59.320Z,45.28
2022-08-02T07:51:31.818Z,45.23
2022-08-02T07:54:04.888Z,45.20
2022-08-02T07:56:35.720Z,45.25
2022-08-02T07:59:06.593Z,44.69
2022-08-02T08:01:37.359Z,44.56
2022-08-02T08:04:10.658Z,44.70
2022-08-02T08:06:41.365Z,44.38
2022-08-02T08:09:12.043Z,44.31
2022-08-02T08:11:42.795Z,43.93
2022-08-02T08:14:16.631Z,43.51
2022-08-02T08:16:47.882Z,43.42
2022-08-02T08:19:18.524Z,43.63
2022-08-02T08:21:49.248Z,43.32
2022-08-02T08:24:22.388Z,43.37
2022-08-02T08:26:53.032Z,43.51
2022-08-02T08:29:24.333Z,43.34
2022-08-02T08:31:54.946Z,42.97
2022-08-02T08:34:27.276Z,42.64
2022-08-02T08:36:57.958Z,42.36
2022-08-02T08:39:28.543Z,42.28
2022-08-02T08:41:59.307Z,42.30
2022-08-02T08:44:30.041Z,42.04
2022-08-02T08:47:01.691Z,41.94
2022-08-02T08:49:33.393Z,41.94
2022-08-02T08:52:05.647Z,41.70
2022-08-02T08:54:37.316Z,41.63
2022-08-02T08:57:08.452Z,41.33
2022-08-02T08:59:39.501Z,41.39
2022-08-02T09:02:21.530Z,41.26
2022-08-02T09:04:55.129Z,40.98
2022-08-02T09:07:26.260Z,40.41
2022-08-02T09:09:57.220Z,40.47
2022-08-02T09:12:28.075Z,40.25
2022-08-02T09:14:58.984Z,39.93
2022-08-02T09:17:29.651Z,39.65
2022-08-02T09:20:10.231Z,39.75
2022-08-02T09:22:41.376Z,39.22
2022-08-02T09:25:12.277Z,39.33
2022-08-02T09:27:43.022Z,39.05
2022-08-02T09:30:16.939Z,39.08
2022-08-02T09:32:48.266Z,38.61
2022-08-02T09:36:06.746Z,38.13
2022-08-02T09:38:25.842Z,38.13
2022-08-02T09:40:57.368Z,37.90
2022-08-02T09:44:03.846Z,37.99
2022-08-02T09:46:33.637Z,37.79
2022-08-02T09:49:05.460Z,37.54
2022-08-02T09:51:36.930Z,37.17
2022-08-02T09:54:09.320Z,37.13
2022-08-02T09:56:44.317Z,37.16
2022-08-02T09:59:15.650Z,37.01
2022-08-02T10:01:50.547Z,36.72
2022-08-02T10:04:24.711Z,36.23
2022-08-02T10:06:55.751Z,35.88
2022-08-02T10:09:28.775Z,35.61
2022-08-02T10:11:59.506Z,35.29
2022-08-02T10:14:30.111Z,35.01
2022-08-02T10:17:00.780Z,34.65
2022-08-02T10:20:00.943Z,34.60
2022-08-02T10:22:22.319Z,34.42
2022-08-02T10:24:53.124Z,34.19
2022-08-02T10:27:25.322Z,33.86
2022-08-02T10:29:56.122Z,33.25
2022-08-02T10:32:28.457Z,33.26
2022-08-02T10:35:19.074Z,32.92
2022-08-02T10:37:52.102Z,32.61
2022-08-02T10:40:27.063Z,32.40
2022-08-02T10:43:00.921Z,32.23
2022-08-02T10:45:31.949Z,32.21
2022-08-02T10:48:06.208Z,32.19
2022-08-02T10:50:55.727Z,31.92
2022-08-02T10:53:27.386Z,31.46
2022-08-02T10:55:58.594Z,31.04
2022-08-02T10:58:30.450Z,31.12
2022-08-02T11:01:04.917Z,30.72
2022-08-02T11:03:40.991Z,30.57
2022-08-02T11:06:25.350Z,30.55
2022-08-02T11:09:32.462Z,30.55
2022-08-02T11:12:04.878Z,30.51
2022-08-02T11:14:36.526Z,30.62
2022-08-02T11:17:14.322Z,30.41
2022-08-02T11:20:02.232Z,29.78
2022-08-02T11:22:32.944Z,29.70
2022-08-02T11:25:10.112Z,29.56
2022-08-02T11:27:40.823Z,29.46
2022-08-02T11:30:14.908Z,29.23
2022-08-02T11:32:45.705Z,29.22
2022-08-02T11:35:16.307Z,29.28
2022-08-02T11:37:47.095Z,29.08
2022-08-02T11:40:19.078Z,28.58
2022-08-02T11:42:51.291Z,28.58
2022-08-02T11:45:29.333Z,28.56
2022-08-02T11:48:05.478Z,28.17
2022-08-02T11:50:39.175Z,27.92
2022-08-02T11:53:16.804Z,27.84
2022-08-02T11:55:47.424Z,27.53
2022-08-02T11:58:18.142Z,27.56
2022-08-02T12:00:49.473Z,27.54
2022-08-02T12:03:21.353Z,27.33
2022-08-02T12:06:05.184Z,27.00
2022-08-02T12:08:38.270Z,26.82
2022-08-02T12:11:08.902Z,26.78
2022-08-02T12:13:56.524Z,26.55
2022-08-02T12:16:51.783Z,26.29
2022-08-02T12:19:26.612Z,26.16
2022-08-02T12:22:14.117Z,26.09
2022-08-02T12:24:45.792Z,25.92
2022-08-02T12:27:32.836Z,25.98
2022-08-02T12:30:06.043Z,25.87
2022-08-02T12:32:37.012Z,25.90
2022-08-02T12:35:11.744Z,25.62
2022-08-02T12:37:43.814Z,25.63
2022-08-02T12:40:25.159Z,25.54
2022-08-02T12:42:58.710Z,25.50
2022-08-02T12:45:40.858Z,25.30
2022-08-02T12:48:12.719Z,25.07
2022-08-02T12:50:44.067Z,25.11
2022-08-02T12:53:16.094Z,24.87
2022-08-02T12:55:59.874Z,24.89
2022-08-02T12:58:38.856Z,24.77
2022-08-02T13:01:09.545Z,24.99
2022-08-02T13:04:07.954Z,24.74
2022-08-02T13:06:40.893Z,24.53
2022-08-02T13:09:17.318Z,24.49
2022-08-02T13:11:48.287Z,24.62
2022-08-02T13:14:19.095Z,24.39
2022-08-02T13:16:49.779Z,24.21
2022-08-02T13:19:20.441Z,24.43
2022-08-02T13:22:01.995Z,24.36
2022-08-02T13:24:40.076Z,24.08
2022-08-02T13:27:25.672Z,24.45
2022-08-02T13:29:56.722Z,24.46
2022-08-02T13:32:28.153Z,24.25
2022-08-02T13:34:59.334Z,24.21
2022-08-02T13:37:29.968Z,23.87
2022-08-02T13:40:20.581Z,24.05
2022-08-02T13:42:51.752Z,24.02
2022-08-02T13:45:22.655Z,24.05
2022-08-02T13:48:04.029Z,24.06
2022-08-02T13:50:36.690Z,24.20
2022-08-02T13:53:07.396Z,24.10
2022-08-02T13:55:38.811Z,23.95
2022-08-02T13:58:14.256Z,23.89
2022-08-02T14:00:45.020Z,24.19
2022-08-02T14:03:15.781Z,23.94
2022-08-02T14:05:48.501Z,24.23
2022-08-02T14:08:20.322Z,24.14
2022-08-02T14:10:51.329Z,23.92
2022-08-02T14:13:21.960Z,24.06
2022-08-02T14:15:52.601Z,23.98
2022-08-02T14:18:23.344Z,23.81
2022-08-02T14:20:54.305Z,23.92
2022-08-02T14:23:49.037Z,23.78
2022-08-02T14:26:16.177Z,23.59
2022-08-02T14:28:58.603Z,23.40
2022-08-02T14:31:29.294Z,23.19
2022-08-02T14:34:00.126Z,23.34
2022-08-02T14:36:30.831Z,23.35
2022-08-02T14:39:02.208Z,23.10
2022-08-02T14:41:59.801Z,23.16
2022-08-02T14:44:27.340Z,23.14
2022-08-02T14:46:58.269Z,23.25
2022-08-02T14:49:29.039Z,23.32
2022-08-02T14:51:59.787Z,23.49
2022-08-02T14:54:32.112Z,23.34
2022-08-02T14:57:04.168Z,23.31
2022-08-02T14:59:34.823Z,23.28
2022-08-02T15:02:05.730Z,23.36
2022-08-02T15:04:42.701Z,23.50
2022-08-02T15:07:15.504Z,23.55
2022-08-02T15:09:46.205Z,23.54
2022-08-02T15:12:17.151Z,23.66
2022-08-02T15:14:48.070Z,23.42
2022-08-02T15:17:18.802Z,23.64
2022-08-02T15:19:57.931Z,23.60
2022-08-02T15:22:31.034Z,23.49
2022-08-02T15:25:02.846Z,23.40
2022-08-02T15:27:33.427Z,23.60
2022-08-02T15:30:09.132Z,23.39
2022-08-02T15:32:39.890Z,23.43
2022-08-02T15:35:23.516Z,23.55
2022-08-02T15:37:54.406Z,23.38
2022-08-02T15:40:25.134Z,23.38
2022-08-02T15:42:55.755Z,23.41
2022-08-02T15:45:27.995Z,23.25
2022-08-02T15:47:58.658Z,23.44
2022-08-02T15:50:29.444Z,23.64
2022-08-02T15:53:00.196Z,23.67
2022-08-02T15:55:40.035Z,23.92
2022-08-02T15:58:22.421Z,23.85
2022-08-02T16:00:53.822Z,23.82
2022-08-02T16:03:24.593Z,23.93
2022-08-02T16:05:55.239Z,23.84
2022-08-02T16:08:26.041Z,23.90
2022-08-02T16:10:57.185Z,24.03
2022-08-02T16:13:52.884Z,23.94
2022-08-02T16:16:34.625Z,24.02
2022-08-02T16:19:45.976Z,24.03
2022-08-02T16:21:57.374Z,24.38
2022-08-02T16:24:28.180Z,24.42
2022-08-02T16:26:59.020Z,24.52
2022-08-02T16:29:33.392Z,24.21
2022-08-02T16:32:04.841Z,24.24
2022-08-02T16:34:50.686Z,24.66
2022-08-02T16:37:27.727Z,24.47
2022-08-02T16:40:18.406Z,24.59
2022-08-02T16:42:50.523Z,24.37
2022-08-02T16:48:12.746Z,24.52
2022-08-02T16:50:46.653Z,24.91
2022-08-02T16:53:27.459Z,24.71
2022-08-02T16:56:08.125Z,24.85
2022-08-02T16:58:38.869Z,25.04
2022-08-02T17:01:15.805Z,25.16
2022-08-02T17:03:56.281Z,25.37
2022-08-02T17:06:28.627Z,25.30
2022-08-02T17:08:59.919Z,25.55
2022-08-02T17:11:30.658Z,25.73
2022-08-02T17:14:01.868Z,25.77
2022-08-02T17:16:32.543Z,25.81
2022-08-02T17:19:03.249Z,25.82
2022-08-02T17:21:34.157Z,26.04
2022-08-02T17:24:08.192Z,26.06
2022-08-02T17:26:55.844Z,26.14
2022-08-02T17:29:26.619Z,26.17
2022-08-02T17:32:09.025Z,26.19
2022-08-02T17:34:49.092Z,26.34
2022-08-02T17:37:31.805Z,26.28
2022-08-02T17:40:03.616Z,26.55
2022-08-02T17:42:35.265Z,26.44
2022-08-02T17:45:25.022Z,26.78
2022-08-02T17:48:04.647Z,26.91
2022-08-02T17:50:36.285Z,26.92
2022-08-02T17:53:07.094Z,27.26
2022-08-02T17:55:42.415Z,27.44
2022-08-02T17:58:13.522Z,27.67
2022-08-02T18:00:44.923Z,27.83
2022-08-02T18:03:15.949Z,27.97
2022-08-02T18:05:53.456Z,28.22
2022-08-02T18:08:26.290Z,28.38
2022-08-02T18:10:58.500Z,28.60
2022-08-02T18:13:33.085Z,28.70
2022-08-02T18:16:21.082Z,28.67
2022-08-02T18:18:52.293Z,28.84
2022-08-02T18:21:23.213Z,29.03
2022-08-02T18:23:58.479Z,29.20
2022-08-02T18:26:30.358Z,29.19
2022-08-02T18:29:03.649Z,29.66
2022-08-02T18:31:39.659Z,29.66
2022-08-02T18:34:25.236Z,29.84
2022-08-02T18:36:56.016Z,30.02
2022-08-02T18:39:26.737Z,30.07
2022-08-02T18:42:03.894Z,30.21
2022-08-02T18:44:34.658Z,30.23
2022-08-02T18:47:05.848Z,30.55
2022-08-02T18:49:46.614Z,30.28
2022-08-02T18:52:31.289Z,30.57
2022-08-02T18:55:05.192Z,30.60
2022-08-02T18:58:17.567Z,30.70
2022-08-02T19:00:29.400Z,30.83
2022-08-02T19:03:00.047Z,30.98
2022-08-02T19:05:52.373Z,31.02
2022-08-02T19:08:25.381Z,31.18
2022-08-02T19:10:57.303Z,31.46
2022-08-02T19:13:28.264Z,31.69
2022-08-02T19:15:58.964Z,31.68
2022-08-02T19:18:30.052Z,31.88
2022-08-02T19:21:05.214Z,32.27
2022-08-02T19:23:36.844Z,32.53
2022-08-02T19:26:25.880Z,32.63
2022-08-02T19:28:56.806Z,32.66
2022-08-02T19:31:34.772Z,32.97
2022-08-02T19:34:20.616Z,32.93
2022-08-02T19:36:55.961Z,32.79
2022-08-02T19:39:26.919Z,33.31
2022-08-02T19:41:57.736Z,33.17
2022-08-02T19:44:29.547Z,33.48
2022-08-02T19:47:00.564Z,33.67
2022-08-02T19:49:40.211Z,33.89
2022-08-02T19:52:21.621Z,34.17
2022-08-02T19:54:54.899Z,34.22
2022-08-02T19:57:27.080Z,34.54
2022-08-02T19:59:59.303Z,34.49
2022-08-02T20:02:30.053Z,34.59
2022-08-02T20:05:08.040Z,34.70
2022-08-02T20:07:54.968Z,34.87
2022-08-02T20:10:27.661Z,35.05
2022-08-02T20:12:58.410Z,35.01
2022-08-02T20:15:56.556Z,35.29
2022-08-02T20:18:26.617Z,35.43
2022-08-02T20:20:57.979Z,35.45
2022-08-02T20:23:32.097Z,35.52
2022-08-02T20:26:06.422Z,35.69
2022-08-02T20:28:40.210Z,35.67
2022-08-02T20:31:10.905Z,35.92
2022-08-02T20:33:56.133Z,36.05
2022-08-02T20:36:27.714Z,36.05
2022-08-02T20:38:58.314Z,36.21
2022-08-02T20:41:37.029Z,36.34
2022-08-02T20:44:30.639Z,36.47
2022-08-02T20:47:02.205Z,36.52
2022-08-02T20:49:40.803Z,36.60
2022-08-02T20:52:23.278Z,36.72
2022-08-02T20:54:55.086Z,36.75
2022-08-02T20:57:48.586Z,36.98
2022-08-02T21:00:17.242Z,37.01
2022-08-02T21:02:50.680Z,37.26
2022-08-02T21:05:43.806Z,37.38
2022-08-02T21:08:14.889Z,37.40
2022-08-02T21:10:51.949Z,37.61
2022-08-02T21:13:26.156Z,37.69
2022-08-02T21:16:04.545Z,37.78
2022-08-02T21:18:41.261Z,37.87
2022-08-02T21:21:12.200Z,38.00
2022-08-02T21:23:48.769Z,38.00
2022-08-02T21:29:15.693Z,38.22
2022-08-02T21:31:46.455Z,38.30
2022-08-02T21:34:26.644Z,38.42
2022-08-02T21:36:58.117Z,38.36
2022-08-02T21:39:28.994Z,38.40
2022-08-02T21:41:59.831Z,38.69
2022-08-02T21:44:30.631Z,38.64
2022-08-02T21:47:01.289Z,38.71
2022-08-02T21:50:08.506Z,38.85
2022-08-02T21:52:25.228Z,38.82
2022-08-02T21:54:57.029Z,38.83
2022-08-02T21:57:34.573Z,38.86
2022-08-02T22:00:07.252Z,39.07
2022-08-02T22:02:37.979Z,39.14
2022-08-02T22:05:13.356Z,39.10
2022-08-02T22:07:45.717Z,39.23
2022-08-02T22:10:16.729Z,39.27
2022-08-02T22:12:50.016Z,39.28
2022-08-02T22:15:25.926Z,39.30
2022-08-02T22:18:07.047Z,39.28
2022-08-02T22:20:45.183Z,39.34
2022-08-02T22:23:22.479Z,39.53
2022-08-02T22:26:08.479Z,39.46
2022-08-02T22:28:51.160Z,39.63
2022-08-02T22:31:40.941Z,39.65
2022-08-02T22:34:36.993Z,39.70
2022-08-02T22:37:07.305Z,39.76
2022-08-02T22:39:38.455Z,39.78
2022-08-02T22:42:29.144Z,39.87
2022-08-02T22:45:00.257Z,39.78
2022-08-02T22:47:38.542Z,39.97
2022-08-02T22:50:11.937Z,40.12
2022-08-02T22:52:46.821Z,40.13
2022-08-02T22:55:21.473Z,40.19
2022-08-02T22:57:57.054Z,40.24
2022-08-02T22:58:34.617Z,24.51
2022-08-02T22:59:10.572Z,38.23
2022-08-02T23:00:28.229Z,40.27
2022-08-02T23:02:58.981Z,40.42
2022-08-02T23:05:29.722Z,40.44
2022-08-02T23:08:00.435Z,40.38
2022-08-02T23:10:31.088Z,40.53
2022-08-02T23:13:01.754Z,40.52
2022-08-02T23:15:52.484Z,40.66
2022-08-02T23:18:40.788Z,40.73
2022-08-02T23:21:11.576Z,40.86
2022-08-02T23:23:42.180Z,41.06
2022-08-02T23:26:12.841Z,41.20
2022-08-02T23:28:43.612Z,41.31
2022-08-02T23:31:33.836Z,41.31
2022-08-02T23:34:08.985Z,41.55
2022-08-02T23:36:39.682Z,41.60
2022-08-02T23:39:10.383Z,41.53
2022-08-02T23:41:41.006Z,41.60
2022-08-02T23:44:14.167Z,41.78
2022-08-02T23:46:46.296Z,41.90
2022-08-02T23:49:17.237Z,41.86
2022-08-02T23:51:48.100Z,41.91
2022-08-02T23:54:18.860Z,41.93
2022-08-02T23:56:49.645Z,41.92
2022-08-02T23:59:20.334Z,41.93
